createdAt,value
2023-01-01T00:02:41.299Z,76.25
2023-01-01T00:07:44.130Z,75.45
2023-01-01T00:12:48.244Z,75.07
2023-01-01T00:17:51.055Z,74.82
2023-01-01T00:22:56.105Z,75.45
2023-01-01T00:28:00.838Z,75.44
2023-01-01T00:33:03.590Z,75.16
2023-01-01T00:38:06.375Z,74.58
2023-01-01T00:43:10.578Z,74.52
2023-01-01T00:48:13.370Z,74.80
2023-01-01T00:53:16.705Z,73.91
2023-01-01T00:58:20.902Z,73.84
2023-01-01T01:03:30.452Z,74.24
2023-01-01T01:08:34.997Z,73.73
2023-01-01T01:13:40.198Z,73.38
2023-01-01T01:18:43.345Z,73.83
2023-01-01T01:23:46.549Z,73.95
2023-01-01T01:28:51.429Z,73.97
2023-01-01T01:33:54.270Z,73.36
2023-01-01T01:38:57.419Z,72.50
2023-01-01T01:44:03.221Z,73.13
2023-01-01T01:49:13.792Z,72.11
2023-01-01T01:54:21.638Z,72.46
2023-01-01T01:59:28.313Z,71.79
2023-01-01T02:04:31.179Z,72.06
2023-01-01T02:09:34.107Z,71.34
2023-01-01T02:14:38.270Z,70.88
2023-01-01T02:19:56.679Z,70.72
2023-01-01T02:25:10.017Z,70.94
2023-01-01T02:30:15.407Z,71.83
2023-01-01T02:35:38.776Z,70.96
2023-01-01T02:40:45.230Z,71.85
2023-01-01T02:45:49.951Z,71.27
2023-01-01T02:50:53.218Z,72.22
2023-01-01T02:56:06.135Z,72.43
2023-01-01T03:01:19.768Z,74.17
2023-01-01T03:06:30.834Z,75.76
2023-01-01T03:11:43.337Z,77.39
2023-01-01T03:16:50.058Z,79.94
2023-01-01T03:21:59.135Z,81.53
2023-01-01T03:27:06.147Z,80.56
2023-01-01T03:32:14.469Z,81.27
2023-01-01T03:37:22.806Z,81.59
2023-01-01T03:42:33.371Z,81.64
2023-01-01T03:47:38.372Z,82.52
2023-01-01T03:52:50.824Z,82.49
2023-01-01T03:58:03.226Z,82.42
2023-01-01T04:03:10.669Z,81.54
2023-01-01T04:08:15.952Z,81.75
2023-01-01T04:13:18.806Z,81.55
2023-01-01T04:18:22.925Z,81.64
2023-01-01T04:23:25.730Z,82.24
2023-01-01T04:28:28.482Z,82.75
2023-01-01T04:33:32.969Z,83.16
2023-01-01T04:38:36.803Z,81.83
2023-01-01T04:43:39.543Z,81.68
2023-01-01T04:48:43.766Z,82.01
2023-01-01T04:53:47.123Z,80.64
2023-01-01T04:58:50.622Z,80.09
2023-01-01T05:03:55.440Z,78.39
2023-01-01T05:08:59.574Z,77.34
2023-01-01T05:14:03.142Z,77.26
2023-01-01T05:19:08.912Z,76.39
2023-01-01T05:24:12.249Z,76.21
2023-01-01T05:29:17.043Z,75.49
2023-01-01T05:34:21.486Z,74.52
2023-01-01T05:39:24.235Z,73.31
2023-01-01T05:44:27.008Z,72.96
2023-01-01T05:49:31.152Z,70.48
2023-01-01T05:54:33.956Z,70.94
2023-01-01T05:59:36.735Z,70.60
2023-01-01T06:04:40.933Z,69.43
2023-01-01T06:09:44.081Z,69.99
2023-01-01T06:14:46.900Z,69.03
2023-01-01T06:19:51.004Z,68.72
2023-01-01T06:24:53.744Z,68.21
2023-01-01T06:29:57.658Z,67.79
2023-01-01T06:35:01.766Z,67.28
2023-01-01T06:40:05.868Z,66.68
2023-01-01T06:45:10.212Z,66.70
2023-01-01T06:50:14.344Z,66.97
2023-01-01T06:55:17.286Z,66.67
2023-01-01T07:00:20.245Z,67.51
2023-01-01T07:05:24.397Z,67.50
2023-01-01T07:10:27.252Z,68.29
2023-01-01T07:15:31.519Z,68.13
2023-01-01T07:20:35.713Z,69.65
2023-01-01T07:25:38.500Z,69.53
2023-01-01T07:30:41.345Z,69.39
2023-01-01T07:35:46.429Z,68.57
2023-01-01T07:40:49.245Z,68.59
2023-01-01T07:45:52.098Z,68.57
2023-01-01T07:50:56.340Z,68.04
2023-01-01T07:55:59.161Z,66.96
2023-01-01T08:01:01.997Z,66.28
2023-01-01T08:06:10.003Z,66.00
2023-01-01T08:11:12.757Z,66.22
2023-01-01T08:16:15.588Z,66.62
2023-01-01T08:21:19.725Z,66.45
2023-01-01T08:26:29.295Z,66.41
2023-01-01T08:31:32.135Z,65.78
2023-01-01T08:36:36.402Z,65.45
2023-01-01T08:41:39.195Z,63.91
2023-01-01T08:46:42.097Z,63.42
2023-01-01T08:51:46.346Z,62.97
2023-01-01T08:56:49.155Z,63.42
2023-01-01T09:01:52.084Z,63.39
2023-01-01T09:06:56.375Z,62.60
2023-01-01T09:12:04.037Z,60.85
2023-01-01T09:17:07.096Z,60.90
2023-01-01T09:22:12.276Z,62.19
2023-01-01T09:27:15.091Z,62.43
2023-01-01T09:32:18.628Z,62.55
2023-01-01T09:37:22.727Z,61.98
2023-01-01T09:42:36.852Z,61.27
2023-01-01T09:47:42.727Z,60.70
2023-01-01T09:52:51.877Z,59.04
2023-01-01T09:57:56.563Z,58.54
2023-01-01T10:03:14.389Z,58.60
2023-01-01T10:08:31.536Z,59.27
2023-01-01T10:13:39.231Z,61.20
2023-01-01T10:18:43.475Z,61.64
2023-01-01T10:23:53.782Z,62.04
2023-01-01T10:29:02.560Z,62.26
2023-01-01T10:34:15.908Z,60.14
2023-01-01T10:39:20.600Z,58.09
2023-01-01T10:44:31.004Z,56.35
2023-01-01T10:49:33.983Z,55.65
2023-01-01T10:54:41.618Z,55.80
2023-01-01T10:59:53.518Z,55.75
2023-01-01T11:05:21.524Z,56.16
2023-01-01T11:10:26.719Z,56.26
2023-01-01T11:15:37.828Z,56.32
2023-01-01T11:20:41.580Z,57.11
2023-01-01T11:26:01.293Z,57.08
2023-01-01T11:31:16.993Z,55.81
2023-01-01T11:36:25.527Z,55.96
2023-01-01T11:41:29.790Z,55.62
2023-01-01T11:46:33.169Z,55.62
2023-01-01T11:51:36.145Z,55.93
2023-01-01T11:56:41.210Z,55.46
2023-01-01T12:01:48.135Z,55.82
2023-01-01T12:06:56.622Z,56.17
2023-01-01T12:12:05.119Z,56.19
2023-01-01T12:17:15.993Z,56.41
2023-01-01T12:22:20.458Z,56.98
2023-01-01T12:27:43.379Z,57.09
2023-01-01T12:33:08.230Z,56.83
2023-01-01T12:38:20.765Z,57.36
2023-01-01T12:43:32.851Z,58.22
2023-01-01T12:49:08.576Z,58.85
2023-01-01T12:54:55.599Z,59.73
2023-01-01T13:00:04.425Z,60.35
2023-01-01T13:05:17.085Z,60.94
2023-01-01T13:10:27.586Z,62.39
2023-01-01T13:15:49.379Z,63.53
2023-01-01T13:20:58.271Z,64.86
2023-01-01T13:26:32.112Z,65.02
2023-01-01T13:32:01.944Z,65.16
2023-01-01T13:37:26.847Z,65.36
2023-01-01T13:42:43.856Z,65.59
2023-01-01T13:48:05.701Z,65.72
2023-01-01T13:53:38.396Z,66.13
2023-01-01T13:59:07.805Z,67.07
2023-01-01T14:04:27.319Z,68.30
2023-01-01T14:09:30.196Z,69.40
2023-01-01T14:14:34.372Z,69.43
2023-01-01T14:19:41.580Z,69.66
2023-01-01T14:24:47.130Z,68.75
2023-01-01T14:29:52.410Z,69.92
2023-01-01T14:35:03.566Z,69.94
2023-01-01T14:40:17.022Z,70.18
2023-01-01T14:45:20.271Z,70.89
2023-01-01T14:50:30.839Z,71.68
2023-01-01T14:55:40.371Z,73.47
2023-01-01T15:00:43.427Z,74.21
2023-01-01T15:05:58.821Z,74.87
2023-01-01T15:11:04.482Z,77.07
2023-01-01T15:16:17.681Z,78.38
2023-01-01T15:21:38.734Z,78.70
2023-01-01T15:26:44.202Z,79.60
2023-01-01T15:31:50.341Z,80.69
2023-01-01T15:36:56.693Z,82.04
2023-01-01T15:41:59.636Z,82.63
2023-01-01T15:47:12.721Z,82.30
2023-01-01T15:52:27.792Z,81.79
2023-01-01T15:57:30.707Z,81.62
2023-01-01T16:02:36.480Z,81.51
2023-01-01T16:07:40.804Z,82.02
2023-01-01T16:12:43.602Z,82.07
2023-01-01T16:17:47.177Z,82.62
2023-01-01T16:22:51.328Z,83.55
2023-01-01T16:27:54.081Z,86.50
2023-01-01T16:32:57.135Z,87.89
2023-01-01T16:38:01.248Z,88.96
2023-01-01T16:43:05.751Z,89.80
2023-01-01T16:48:08.669Z,90.10
2023-01-01T16:53:14.603Z,90.06
2023-01-01T16:58:48.613Z,93.80
2023-01-01T17:03:40.270Z,95.72
2023-01-01T17:08:44.463Z,97.18
2023-01-01T17:13:48.615Z,97.51
2023-01-01T17:24:16.616Z,99.95
2023-01-01T17:29:19.720Z,100.00
2023-01-01T17:34:22.761Z,100.00
2023-01-01T17:39:27.061Z,100.00
2023-01-01T17:44:32.015Z,100.00
2023-01-01T17:49:34.916Z,100.00
2023-01-01T17:54:39.299Z,100.00
2023-01-01T17:59:42.098Z,100.00
2023-01-01T18:04:45.143Z,100.00
2023-01-01T18:09:49.804Z,100.00
2023-01-01T18:14:52.663Z,100.00
2023-01-01T18:19:55.465Z,100.00
2023-01-01T18:24:59.789Z,100.00
2023-01-01T18:30:02.640Z,100.00
2023-01-01T18:35:06.528Z,100.00
2023-01-01T18:40:15.318Z,100.00
2023-01-01T18:45:21.333Z,100.00
2023-01-01T18:50:27.519Z,100.00
2023-01-01T18:55:32.291Z,100.00
2023-01-01T19:00:38.200Z,100.00
2023-01-01T19:05:41.039Z,100.00
2023-01-01T19:10:49.759Z,100.00
2023-01-01T19:15:58.331Z,100.00
2023-01-01T19:21:15.834Z,100.00
2023-01-01T19:26:25.705Z,100.00
2023-01-01T19:31:36.133Z,100.00
2023-01-01T19:36:39.308Z,100.00
2023-01-01T19:41:44.959Z,100.00
2023-01-01T19:46:47.878Z,100.00
2023-01-01T19:51:52.742Z,100.00
2023-01-01T19:56:58.213Z,100.00
2023-01-01T20:07:25.367Z,100.00
2023-01-01T20:12:29.581Z,100.00
2023-01-01T20:17:32.545Z,100.00
2023-01-01T20:22:35.822Z,100.00
2023-01-01T20:28:00.596Z,100.00
2023-01-01T20:33:06.366Z,100.00
2023-01-01T20:38:09.221Z,100.00
2023-01-01T20:43:13.505Z,100.00
2023-01-01T20:48:19.781Z,100.00
2023-01-01T20:53:22.939Z,100.00
2023-01-01T20:58:28.419Z,100.00
2023-01-01T21:03:31.438Z,100.00
2023-01-01T21:08:34.400Z,100.00
2023-01-01T21:13:38.968Z,100.00
2023-01-01T21:18:42.291Z,100.00
2023-01-01T21:23:45.152Z,100.00
2023-01-01T21:28:49.573Z,100.00
2023-01-01T21:33:52.524Z,100.00
2023-01-01T21:38:55.539Z,100.00
2023-01-01T21:44:00.214Z,100.00
2023-01-01T21:49:07.684Z,100.00
2023-01-01T21:54:19.400Z,100.00
2023-01-01T21:59:38.516Z,100.00
2023-01-01T22:04:43.021Z,100.00
2023-01-01T22:09:47.966Z,100.00
2023-01-01T22:14:54.001Z,100.00
2023-01-01T22:20:00.777Z,100.00
2023-01-01T22:25:26.189Z,100.00
2023-01-01T22:30:41.320Z,100.00
2023-01-01T22:35:44.519Z,100.00
2023-01-01T22:40:49.779Z,100.00
2023-01-01T22:45:54.671Z,100.00
2023-01-01T22:51:01.828Z,100.00
2023-01-01T22:56:04.926Z,100.00
2023-01-01T23:01:09.127Z,100.00
2023-01-01T23:06:11.996Z,100.00
2023-01-01T23:11:14.810Z,100.00
2023-01-01T23:16:19.052Z,100.00
2023-01-01T23:21:27.283Z,100.00
2023-01-01T23:26:30.190Z,100.00
2023-01-01T23:31:35.328Z,100.00
2023-01-01T23:36:39.281Z,100.00
2023-01-01T23:41:42.289Z,100.00
2023-01-01T23:46:46.859Z,100.00
2023-01-01T23:51:50.879Z,100.00
2023-01-01T23:56:53.644Z,100.00
